sensor_id;sensor_type;location;lat;lon;timestamp;temperature;humidity
18101;DHT22;9177;49.156;8.142;2023-08-06T00:00:00;22.70;99.90
18101;DHT22;9177;49.156;8.142;2023-08-06T00:02:29;22.70;99.90
18101;DHT22;9177;49.156;8.142;2023-08-06T00:04:56;22.70;99.90
18101;DHT22;9177;49.156;8.142;2023-08-06T00:07:23;22.70;99.90
18101;DHT22;9177;49.156;8.142;2023-08-06T00:09:50;22.70;99.90
18101;DHT22;9177;49.156;8.142;2023-08-06T00:12:17;22.70;99.90
18101;DHT22;9177;49.156;8.142;2023-08-06T00:14:44;22.70;99.90
18101;DHT22;9177;49.156;8.142;2023-08-06T00:17:11;22.70;99.90
18101;DHT22;9177;49.156;8.142;2023-08-06T00:19:39;22.70;99.90
18101;DHT22;9177;49.156;8.142;2023-08-06T00:22:06;22.70;99.90
18101;DHT22;9177;49.156;8.142;2023-08-06T00:24:33;22.70;99.90
18101;DHT22;9177;49.156;8.142;2023-08-06T00:27:00;22.70;99.90
18101;DHT22;9177;49.156;8.142;2023-08-06T00:29:27;22.70;99.90
18101;DHT22;9177;49.156;8.142;2023-08-06T00:31:54;22.70;99.90
18101;DHT22;9177;49.156;8.142;2023-08-06T00:34:22;22.70;99.90
18101;DHT22;9177;49.156;8.142;2023-08-06T00:36:50;22.70;99.90
18101;DHT22;9177;49.156;8.142;2023-08-06T00:39:19;22.70;99.90
18101;DHT22;9177;49.156;8.142;2023-08-06T00:41:46;22.70;99.90
18101;DHT22;9177;49.156;8.142;2023-08-06T00:44:12;22.70;99.90
18101;DHT22;9177;49.156;8.142;2023-08-06T00:46:39;22.70;99.90
18101;DHT22;9177;49.156;8.142;2023-08-06T00:49:07;22.70;99.90
18101;DHT22;9177;49.156;8.142;2023-08-06T00:51:34;22.70;99.90
18101;DHT22;9177;49.156;8.142;2023-08-06T00:54:02;22.70;99.90
18101;DHT22;9177;49.156;8.142;2023-08-06T00:56:29;22.70;99.90
18101;DHT22;9177;49.156;8.142;2023-08-06T00:58:56;22.70;99.90
18101;DHT22;9177;49.156;8.142;2023-08-06T01:01:23;22.70;99.90
18101;DHT22;9177;49.156;8.142;2023-08-06T01:03:50;22.60;99.90
18101;DHT22;9177;49.156;8.142;2023-08-06T01:06:20;22.60;99.90
18101;DHT22;9177;49.156;8.142;2023-08-06T01:09:01;22.70;99.90
18101;DHT22;9177;49.156;8.142;2023-08-06T01:11:44;22.70;99.90
18101;DHT22;9177;49.156;8.142;2023-08-06T01:14:20;22.60;99.90
18101;DHT22;9177;49.156;8.142;2023-08-06T01:16:53;22.60;99.90
18101;DHT22;9177;49.156;8.142;2023-08-06T01:19:21;22.60;99.90
18101;DHT22;9177;49.156;8.142;2023-08-06T01:21:50;22.60;99.90
18101;DHT22;9177;49.156;8.142;2023-08-06T01:24:17;22.60;99.90
18101;DHT22;9177;49.156;8.142;2023-08-06T01:26:48;22.60;99.90
18101;DHT22;9177;49.156;8.142;2023-08-06T01:29:21;22.60;99.90
18101;DHT22;9177;49.156;8.142;2023-08-06T01:31:51;22.60;99.90
18101;DHT22;9177;49.156;8.142;2023-08-06T01:34:21;22.60;99.90
18101;DHT22;9177;49.156;8.142;2023-08-06T01:36:50;22.60;99.90
18101;DHT22;9177;49.156;8.142;2023-08-06T01:39:17;22.60;99.90
18101;DHT22;9177;49.156;8.142;2023-08-06T01:41:48;22.60;99.90
18101;DHT22;9177;49.156;8.142;2023-08-06T01:44:16;22.60;99.90
18101;DHT22;9177;49.156;8.142;2023-08-06T01:46:43;22.60;99.90
18101;DHT22;9177;49.156;8.142;2023-08-06T01:49:09;22.60;99.90
18101;DHT22;9177;49.156;8.142;2023-08-06T01:51:36;22.60;99.90
18101;DHT22;9177;49.156;8.142;2023-08-06T01:54:05;22.60;99.90
18101;DHT22;9177;49.156;8.142;2023-08-06T01:56:32;22.60;99.90
18101;DHT22;9177;49.156;8.142;2023-08-06T01:59:01;22.60;99.90
18101;DHT22;9177;49.156;8.142;2023-08-06T02:01:28;22.60;99.90
18101;DHT22;9177;49.156;8.142;2023-08-06T02:03:54;22.60;99.90
18101;DHT22;9177;49.156;8.142;2023-08-06T02:06:21;22.60;99.90
18101;DHT22;9177;49.156;8.142;2023-08-06T02:08:48;22.60;99.90
18101;DHT22;9177;49.156;8.142;2023-08-06T02:11:16;22.60;99.90
18101;DHT22;9177;49.156;8.142;2023-08-06T02:13:43;22.60;99.90
18101;DHT22;9177;49.156;8.142;2023-08-06T02:16:10;22.60;99.90
18101;DHT22;9177;49.156;8.142;2023-08-06T02:18:37;22.60;99.90
18101;DHT22;9177;49.156;8.142;2023-08-06T02:21:04;22.60;99.90
18101;DHT22;9177;49.156;8.142;2023-08-06T02:23:31;22.60;99.90
18101;DHT22;9177;49.156;8.142;2023-08-06T02:25:59;22.60;99.90
18101;DHT22;9177;49.156;8.142;2023-08-06T02:28:27;22.60;99.90
18101;DHT22;9177;49.156;8.142;2023-08-06T02:30:54;22.50;99.90
18101;DHT22;9177;49.156;8.142;2023-08-06T02:33:21;22.50;99.90
18101;DHT22;9177;49.156;8.142;2023-08-06T02:35:48;22.60;99.90
18101;DHT22;9177;49.156;8.142;2023-08-06T02:38:15;22.60;99.90
18101;DHT22;9177;49.156;8.142;2023-08-06T02:40:45;22.60;99.90
18101;DHT22;9177;49.156;8.142;2023-08-06T02:43:12;22.60;99.90
18101;DHT22;9177;49.156;8.142;2023-08-06T02:45:41;22.50;99.90
18101;DHT22;9177;49.156;8.142;2023-08-06T02:48:08;22.50;99.90
18101;DHT22;9177;49.156;8.142;2023-08-06T02:50:39;22.50;99.90
18101;DHT22;9177;49.156;8.142;2023-08-06T02:53:06;22.50;99.90
18101;DHT22;9177;49.156;8.142;2023-08-06T02:55:33;22.50;99.90
18101;DHT22;9177;49.156;8.142;2023-08-06T02:58:00;22.50;99.90
18101;DHT22;9177;49.156;8.142;2023-08-06T03:00:27;22.50;99.90
18101;DHT22;9177;49.156;8.142;2023-08-06T03:02:56;22.50;99.90
18101;DHT22;9177;49.156;8.142;2023-08-06T03:05:22;22.50;99.90
18101;DHT22;9177;49.156;8.142;2023-08-06T03:07:49;22.50;99.90
18101;DHT22;9177;49.156;8.142;2023-08-06T03:10:16;22.50;99.90
18101;DHT22;9177;49.156;8.142;2023-08-06T03:12:43;22.50;99.90
18101;DHT22;9177;49.156;8.142;2023-08-06T03:15:10;22.50;99.90
18101;DHT22;9177;49.156;8.142;2023-08-06T03:17:37;22.50;99.90
18101;DHT22;9177;49.156;8.142;2023-08-06T03:20:07;22.50;99.90
18101;DHT22;9177;49.156;8.142;2023-08-06T03:22:33;22.50;99.90
18101;DHT22;9177;49.156;8.142;2023-08-06T03:25:00;22.50;99.90
18101;DHT22;9177;49.156;8.142;2023-08-06T03:27:27;22.50;99.90
18101;DHT22;9177;49.156;8.142;2023-08-06T03:29:54;22.50;99.90
18101;DHT22;9177;49.156;8.142;2023-08-06T03:32:21;22.60;99.90
18101;DHT22;9177;49.156;8.142;2023-08-06T03:34:48;22.50;99.90
18101;DHT22;9177;49.156;8.142;2023-08-06T03:37:16;22.50;99.90
18101;DHT22;9177;49.156;8.142;2023-08-06T03:39:43;22.50;99.90
18101;DHT22;9177;49.156;8.142;2023-08-06T03:42:10;22.50;99.90
18101;DHT22;9177;49.156;8.142;2023-08-06T03:44:37;22.50;99.90
18101;DHT22;9177;49.156;8.142;2023-08-06T03:47:05;22.50;99.90
18101;DHT22;9177;49.156;8.142;2023-08-06T03:49:32;22.50;99.90
18101;DHT22;9177;49.156;8.142;2023-08-06T03:51:58;22.50;99.90
18101;DHT22;9177;49.156;8.142;2023-08-06T03:54:27;22.50;99.90
18101;DHT22;9177;49.156;8.142;2023-08-06T03:56:54;22.50;99.90
18101;DHT22;9177;49.156;8.142;2023-08-06T03:59:21;22.50;99.90
18101;DHT22;9177;49.156;8.142;2023-08-06T04:01:48;22.50;99.90
18101;DHT22;9177;49.156;8.142;2023-08-06T04:04:15;22.50;99.90
18101;DHT22;9177;49.156;8.142;2023-08-06T04:06:42;22.50;99.90
18101;DHT22;9177;49.156;8.142;2023-08-06T04:09:08;22.50;99.90
18101;DHT22;9177;49.156;8.142;2023-08-06T04:11:37;22.50;99.90
18101;DHT22;9177;49.156;8.142;2023-08-06T04:14:04;22.50;99.90
18101;DHT22;9177;49.156;8.142;2023-08-06T04:16:31;22.50;99.90
18101;DHT22;9177;49.156;8.142;2023-08-06T04:18:58;22.50;99.90
18101;DHT22;9177;49.156;8.142;2023-08-06T04:21:25;22.50;99.90
18101;DHT22;9177;49.156;8.142;2023-08-06T04:23:51;22.50;99.90
18101;DHT22;9177;49.156;8.142;2023-08-06T04:26:18;22.50;99.90
18101;DHT22;9177;49.156;8.142;2023-08-06T04:28:46;22.50;99.90
18101;DHT22;9177;49.156;8.142;2023-08-06T04:31:14;22.50;99.90
18101;DHT22;9177;49.156;8.142;2023-08-06T04:33:45;22.50;99.90
18101;DHT22;9177;49.156;8.142;2023-08-06T04:36:12;22.50;99.90
18101;DHT22;9177;49.156;8.142;2023-08-06T04:38:39;22.50;99.90
18101;DHT22;9177;49.156;8.142;2023-08-06T04:41:07;22.50;99.90
18101;DHT22;9177;49.156;8.142;2023-08-06T04:43:34;22.50;99.90
18101;DHT22;9177;49.156;8.142;2023-08-06T04:46:02;22.50;99.90
18101;DHT22;9177;49.156;8.142;2023-08-06T04:48:29;22.50;99.90
18101;DHT22;9177;49.156;8.142;2023-08-06T04:50:55;22.50;99.90
18101;DHT22;9177;49.156;8.142;2023-08-06T04:53:22;22.50;99.90
18101;DHT22;9177;49.156;8.142;2023-08-06T04:55:49;22.50;99.90
18101;DHT22;9177;49.156;8.142;2023-08-06T04:58:16;22.50;99.90
18101;DHT22;9177;49.156;8.142;2023-08-06T05:00:43;22.50;99.90
18101;DHT22;9177;49.156;8.142;2023-08-06T05:03:11;22.50;99.90
18101;DHT22;9177;49.156;8.142;2023-08-06T05:05:50;22.50;99.90
18101;DHT22;9177;49.156;8.142;2023-08-06T05:08:22;22.50;99.90
18101;DHT22;9177;49.156;8.142;2023-08-06T05:10:48;22.40;99.90
18101;DHT22;9177;49.156;8.142;2023-08-06T05:13:16;22.50;99.90
18101;DHT22;9177;49.156;8.142;2023-08-06T05:15:42;22.40;99.90
18101;DHT22;9177;49.156;8.142;2023-08-06T05:18:12;22.40;99.90
18101;DHT22;9177;49.156;8.142;2023-08-06T05:20:41;22.40;99.90
18101;DHT22;9177;49.156;8.142;2023-08-06T05:23:08;22.40;99.90
18101;DHT22;9177;49.156;8.142;2023-08-06T05:25:35;22.40;99.90
18101;DHT22;9177;49.156;8.142;2023-08-06T05:28:02;22.40;99.90
18101;DHT22;9177;49.156;8.142;2023-08-06T05:30:29;22.40;99.90
18101;DHT22;9177;49.156;8.142;2023-08-06T05:32:56;22.50;99.90
18101;DHT22;9177;49.156;8.142;2023-08-06T05:35:25;22.40;99.90
18101;DHT22;9177;49.156;8.142;2023-08-06T05:37:52;22.40;99.90
18101;DHT22;9177;49.156;8.142;2023-08-06T05:40:19;22.40;99.90
18101;DHT22;9177;49.156;8.142;2023-08-06T05:42:46;22.40;99.90
18101;DHT22;9177;49.156;8.142;2023-08-06T05:45:13;22.40;99.90
18101;DHT22;9177;49.156;8.142;2023-08-06T05:47:40;22.40;99.90
18101;DHT22;9177;49.156;8.142;2023-08-06T05:50:08;22.40;99.90
18101;DHT22;9177;49.156;8.142;2023-08-06T05:52:36;22.40;99.90
18101;DHT22;9177;49.156;8.142;2023-08-06T05:55:04;22.40;99.90
18101;DHT22;9177;49.156;8.142;2023-08-06T05:57:34;22.40;99.90
18101;DHT22;9177;49.156;8.142;2023-08-06T06:00:02;22.40;99.90
18101;DHT22;9177;49.156;8.142;2023-08-06T06:02:31;22.40;99.90
18101;DHT22;9177;49.156;8.142;2023-08-06T06:05:00;22.40;99.90
18101;DHT22;9177;49.156;8.142;2023-08-06T06:07:28;22.40;99.90
18101;DHT22;9177;49.156;8.142;2023-08-06T06:09:56;22.40;99.90
18101;DHT22;9177;49.156;8.142;2023-08-06T06:12:23;22.40;99.90
18101;DHT22;9177;49.156;8.142;2023-08-06T06:14:51;22.40;99.90
18101;DHT22;9177;49.156;8.142;2023-08-06T06:17:18;22.40;99.90
18101;DHT22;9177;49.156;8.142;2023-08-06T06:19:44;22.40;99.90
18101;DHT22;9177;49.156;8.142;2023-08-06T06:22:12;22.40;99.90
18101;DHT22;9177;49.156;8.142;2023-08-06T06:24:39;22.40;99.90
18101;DHT22;9177;49.156;8.142;2023-08-06T06:27:07;22.40;99.90
18101;DHT22;9177;49.156;8.142;2023-08-06T06:29:34;22.40;99.90
18101;DHT22;9177;49.156;8.142;2023-08-06T06:32:01;22.50;99.90
18101;DHT22;9177;49.156;8.142;2023-08-06T06:34:28;22.40;99.90
18101;DHT22;9177;49.156;8.142;2023-08-06T06:36:55;22.40;99.90
18101;DHT22;9177;49.156;8.142;2023-08-06T06:39:22;22.40;99.90
18101;DHT22;9177;49.156;8.142;2023-08-06T06:41:49;22.40;99.90
18101;DHT22;9177;49.156;8.142;2023-08-06T06:44:17;22.40;99.90
18101;DHT22;9177;49.156;8.142;2023-08-06T06:46:45;22.50;99.90
18101;DHT22;9177;49.156;8.142;2023-08-06T06:49:12;22.40;99.90
18101;DHT22;9177;49.156;8.142;2023-08-06T06:51:39;22.40;99.90
18101;DHT22;9177;49.156;8.142;2023-08-06T06:54:06;22.40;99.90
18101;DHT22;9177;49.156;8.142;2023-08-06T06:56:33;22.40;99.90
18101;DHT22;9177;49.156;8.142;2023-08-06T06:58:59;22.40;99.90
18101;DHT22;9177;49.156;8.142;2023-08-06T07:01:28;22.40;99.90
18101;DHT22;9177;49.156;8.142;2023-08-06T07:03:54;22.40;99.90
18101;DHT22;9177;49.156;8.142;2023-08-06T07:06:22;22.40;99.90
18101;DHT22;9177;49.156;8.142;2023-08-06T07:08:49;22.40;99.90
18101;DHT22;9177;49.156;8.142;2023-08-06T07:11:16;22.40;99.90
18101;DHT22;9177;49.156;8.142;2023-08-06T07:13:43;22.40;99.90
18101;DHT22;9177;49.156;8.142;2023-08-06T07:16:15;22.50;99.90
18101;DHT22;9177;49.156;8.142;2023-08-06T07:18:43;22.50;99.90
18101;DHT22;9177;49.156;8.142;2023-08-06T07:21:10;22.50;99.90
18101;DHT22;9177;49.156;8.142;2023-08-06T07:23:37;22.50;99.90
18101;DHT22;9177;49.156;8.142;2023-08-06T07:26:04;22.50;99.90
18101;DHT22;9177;49.156;8.142;2023-08-06T07:28:31;22.50;99.90
18101;DHT22;9177;49.156;8.142;2023-08-06T07:30:58;22.50;99.90
18101;DHT22;9177;49.156;8.142;2023-08-06T07:33:25;22.50;99.90
18101;DHT22;9177;49.156;8.142;2023-08-06T07:35:53;22.50;99.90
18101;DHT22;9177;49.156;8.142;2023-08-06T07:38:20;22.50;99.90
18101;DHT22;9177;49.156;8.142;2023-08-06T07:40:47;22.40;99.90
18101;DHT22;9177;49.156;8.142;2023-08-06T07:43:14;22.40;99.90
18101;DHT22;9177;49.156;8.142;2023-08-06T07:45:41;22.50;99.90
18101;DHT22;9177;49.156;8.142;2023-08-06T07:48:08;22.40;99.90
18101;DHT22;9177;49.156;8.142;2023-08-06T07:50:34;22.40;99.90
18101;DHT22;9177;49.156;8.142;2023-08-06T07:53:03;22.40;99.90
18101;DHT22;9177;49.156;8.142;2023-08-06T07:55:30;22.40;99.90
18101;DHT22;9177;49.156;8.142;2023-08-06T07:57:57;22.40;99.90
18101;DHT22;9177;49.156;8.142;2023-08-06T08:00:24;22.50;99.90
18101;DHT22;9177;49.156;8.142;2023-08-06T08:02:50;22.50;99.90
18101;DHT22;9177;49.156;8.142;2023-08-06T08:05:17;22.50;99.90
18101;DHT22;9177;49.156;8.142;2023-08-06T08:07:44;22.50;99.90
18101;DHT22;9177;49.156;8.142;2023-08-06T08:10:13;22.50;99.90
18101;DHT22;9177;49.156;8.142;2023-08-06T08:12:39;22.50;99.90
18101;DHT22;9177;49.156;8.142;2023-08-06T08:15:07;22.50;99.90
18101;DHT22;9177;49.156;8.142;2023-08-06T08:17:34;22.50;99.90
18101;DHT22;9177;49.156;8.142;2023-08-06T08:20:01;22.50;99.90
18101;DHT22;9177;49.156;8.142;2023-08-06T08:22:28;22.50;99.90
18101;DHT22;9177;49.156;8.142;2023-08-06T08:24:55;22.50;99.90
18101;DHT22;9177;49.156;8.142;2023-08-06T08:27:24;22.50;99.90
18101;DHT22;9177;49.156;8.142;2023-08-06T08:29:51;22.50;99.90
18101;DHT22;9177;49.156;8.142;2023-08-06T08:32:18;22.50;99.90
18101;DHT22;9177;49.156;8.142;2023-08-06T08:34:45;22.50;99.90
18101;DHT22;9177;49.156;8.142;2023-08-06T08:37:13;22.50;99.90
18101;DHT22;9177;49.156;8.142;2023-08-06T08:39:40;22.50;99.90
18101;DHT22;9177;49.156;8.142;2023-08-06T08:42:07;22.50;99.90
18101;DHT22;9177;49.156;8.142;2023-08-06T08:44:36;22.50;99.90
18101;DHT22;9177;49.156;8.142;2023-08-06T08:47:05;22.60;99.90
18101;DHT22;9177;49.156;8.142;2023-08-06T08:49:32;22.60;99.90
18101;DHT22;9177;49.156;8.142;2023-08-06T08:52:02;22.60;99.90
18101;DHT22;9177;49.156;8.142;2023-08-06T08:54:32;22.60;99.90
18101;DHT22;9177;49.156;8.142;2023-08-06T08:56:59;22.60;99.90
18101;DHT22;9177;49.156;8.142;2023-08-06T08:59:28;22.60;99.90
18101;DHT22;9177;49.156;8.142;2023-08-06T09:01:57;22.60;99.90
18101;DHT22;9177;49.156;8.142;2023-08-06T09:04:27;22.60;99.90
18101;DHT22;9177;49.156;8.142;2023-08-06T09:06:58;22.60;99.90
18101;DHT22;9177;49.156;8.142;2023-08-06T09:09:28;22.60;99.90
18101;DHT22;9177;49.156;8.142;2023-08-06T09:12:00;22.60;99.90
18101;DHT22;9177;49.156;8.142;2023-08-06T09:14:28;22.60;99.90
18101;DHT22;9177;49.156;8.142;2023-08-06T09:16:56;22.60;99.90
18101;DHT22;9177;49.156;8.142;2023-08-06T09:19:24;22.60;99.90
18101;DHT22;9177;49.156;8.142;2023-08-06T09:21:53;22.60;99.90
18101;DHT22;9177;49.156;8.142;2023-08-06T09:24:21;22.60;99.90
18101;DHT22;9177;49.156;8.142;2023-08-06T09:26:48;22.50;99.90
18101;DHT22;9177;49.156;8.142;2023-08-06T09:29:15;22.50;99.90
18101;DHT22;9177;49.156;8.142;2023-08-06T09:31:43;22.60;99.90
18101;DHT22;9177;49.156;8.142;2023-08-06T09:34:17;22.50;99.90
18101;DHT22;9177;49.156;8.142;2023-08-06T09:36:47;22.60;99.90
18101;DHT22;9177;49.156;8.142;2023-08-06T09:39:15;22.60;99.90
18101;DHT22;9177;49.156;8.142;2023-08-06T09:41:42;22.60;99.90
18101;DHT22;9177;49.156;8.142;2023-08-06T09:44:17;22.60;99.90
18101;DHT22;9177;49.156;8.142;2023-08-06T09:46:47;22.60;99.90
18101;DHT22;9177;49.156;8.142;2023-08-06T09:49:17;22.60;99.90
18101;DHT22;9177;49.156;8.142;2023-08-06T09:51:44;22.60;99.90
18101;DHT22;9177;49.156;8.142;2023-08-06T09:54:12;22.60;99.90
18101;DHT22;9177;49.156;8.142;2023-08-06T09:56:40;22.60;99.90
18101;DHT22;9177;49.156;8.142;2023-08-06T09:59:09;22.60;99.90
18101;DHT22;9177;49.156;8.142;2023-08-06T10:01:36;22.70;99.90
18101;DHT22;9177;49.156;8.142;2023-08-06T10:04:05;22.70;99.90
18101;DHT22;9177;49.156;8.142;2023-08-06T10:06:35;22.70;99.90
18101;DHT22;9177;49.156;8.142;2023-08-06T10:09:02;22.70;99.90
18101;DHT22;9177;49.156;8.142;2023-08-06T10:11:29;22.70;99.90
18101;DHT22;9177;49.156;8.142;2023-08-06T10:14:00;22.70;99.90
18101;DHT22;9177;49.156;8.142;2023-08-06T10:16:31;22.70;99.90
18101;DHT22;9177;49.156;8.142;2023-08-06T10:18:58;22.70;99.90
18101;DHT22;9177;49.156;8.142;2023-08-06T10:21:26;22.70;99.90
18101;DHT22;9177;49.156;8.142;2023-08-06T10:23:57;22.70;99.90
18101;DHT22;9177;49.156;8.142;2023-08-06T10:26:25;22.70;99.90
18101;DHT22;9177;49.156;8.142;2023-08-06T10:28:53;22.70;99.90
18101;DHT22;9177;49.156;8.142;2023-08-06T10:31:21;22.70;99.90
18101;DHT22;9177;49.156;8.142;2023-08-06T10:34:08;22.70;99.90
18101;DHT22;9177;49.156;8.142;2023-08-06T10:36:35;22.70;99.90
18101;DHT22;9177;49.156;8.142;2023-08-06T10:39:03;22.70;99.90
18101;DHT22;9177;49.156;8.142;2023-08-06T10:41:30;22.60;99.90
18101;DHT22;9177;49.156;8.142;2023-08-06T10:44:05;22.60;99.90
18101;DHT22;9177;49.156;8.142;2023-08-06T10:46:33;22.60;99.90
18101;DHT22;9177;49.156;8.142;2023-08-06T10:49:01;22.60;99.90
18101;DHT22;9177;49.156;8.142;2023-08-06T10:51:30;22.60;99.90
18101;DHT22;9177;49.156;8.142;2023-08-06T10:53:57;22.60;99.90
18101;DHT22;9177;49.156;8.142;2023-08-06T10:56:25;22.60;99.90
18101;DHT22;9177;49.156;8.142;2023-08-06T10:58:55;22.60;99.90
18101;DHT22;9177;49.156;8.142;2023-08-06T11:01:23;22.60;99.90
18101;DHT22;9177;49.156;8.142;2023-08-06T11:03:50;22.60;99.90
18101;DHT22;9177;49.156;8.142;2023-08-06T11:06:19;22.60;99.90
18101;DHT22;9177;49.156;8.142;2023-08-06T11:08:50;22.60;99.90
18101;DHT22;9177;49.156;8.142;2023-08-06T11:11:19;22.60;99.90
18101;DHT22;9177;49.156;8.142;2023-08-06T11:13:49;22.50;99.90
18101;DHT22;9177;49.156;8.142;2023-08-06T11:16:17;22.50;99.90
18101;DHT22;9177;49.156;8.142;2023-08-06T11:18:45;22.50;99.90
18101;DHT22;9177;49.156;8.142;2023-08-06T11:21:13;22.50;99.90
18101;DHT22;9177;49.156;8.142;2023-08-06T11:23:40;22.50;99.90
18101;DHT22;9177;49.156;8.142;2023-08-06T11:26:07;22.50;99.90
18101;DHT22;9177;49.156;8.142;2023-08-06T11:28:35;22.50;99.90
18101;DHT22;9177;49.156;8.142;2023-08-06T11:31:07;22.50;99.90
18101;DHT22;9177;49.156;8.142;2023-08-06T11:33:52;22.50;99.90
18101;DHT22;9177;49.156;8.142;2023-08-06T11:36:31;22.50;99.90
18101;DHT22;9177;49.156;8.142;2023-08-06T11:38:58;22.50;99.90
18101;DHT22;9177;49.156;8.142;2023-08-06T11:41:25;22.50;99.90
18101;DHT22;9177;49.156;8.142;2023-08-06T11:43:54;22.50;99.90
18101;DHT22;9177;49.156;8.142;2023-08-06T11:46:22;22.50;99.90
18101;DHT22;9177;49.156;8.142;2023-08-06T11:48:54;22.50;99.90
18101;DHT22;9177;49.156;8.142;2023-08-06T11:51:23;22.50;99.90
18101;DHT22;9177;49.156;8.142;2023-08-06T11:53:53;22.50;99.90
18101;DHT22;9177;49.156;8.142;2023-08-06T11:56:21;22.50;99.90
18101;DHT22;9177;49.156;8.142;2023-08-06T11:58:48;22.50;99.90
18101;DHT22;9177;49.156;8.142;2023-08-06T12:01:15;22.60;99.90
18101;DHT22;9177;49.156;8.142;2023-08-06T12:03:43;22.50;99.90
18101;DHT22;9177;49.156;8.142;2023-08-06T12:06:10;22.50;99.90
18101;DHT22;9177;49.156;8.142;2023-08-06T12:08:37;22.50;99.90
18101;DHT22;9177;49.156;8.142;2023-08-06T12:11:04;22.50;99.90
18101;DHT22;9177;49.156;8.142;2023-08-06T12:13:31;22.50;99.90
18101;DHT22;9177;49.156;8.142;2023-08-06T12:15:58;22.50;99.90
18101;DHT22;9177;49.156;8.142;2023-08-06T12:18:25;22.50;99.90
18101;DHT22;9177;49.156;8.142;2023-08-06T12:20:53;22.50;99.90
18101;DHT22;9177;49.156;8.142;2023-08-06T12:23:20;22.50;99.90
18101;DHT22;9177;49.156;8.142;2023-08-06T12:25:47;22.50;99.90
18101;DHT22;9177;49.156;8.142;2023-08-06T12:28:15;22.50;99.90
18101;DHT22;9177;49.156;8.142;2023-08-06T12:30:42;22.50;99.90
18101;DHT22;9177;49.156;8.142;2023-08-06T12:33:10;22.50;99.90
18101;DHT22;9177;49.156;8.142;2023-08-06T12:35:37;22.50;99.90
18101;DHT22;9177;49.156;8.142;2023-08-06T12:38:06;22.50;99.90
18101;DHT22;9177;49.156;8.142;2023-08-06T12:40:33;22.50;99.90
18101;DHT22;9177;49.156;8.142;2023-08-06T12:43:00;22.50;99.90
18101;DHT22;9177;49.156;8.142;2023-08-06T12:45:27;22.50;99.90
18101;DHT22;9177;49.156;8.142;2023-08-06T12:47:54;22.50;99.90
18101;DHT22;9177;49.156;8.142;2023-08-06T12:50:21;22.50;99.90
18101;DHT22;9177;49.156;8.142;2023-08-06T12:52:48;22.50;99.90
18101;DHT22;9177;49.156;8.142;2023-08-06T12:55:16;22.50;99.90
18101;DHT22;9177;49.156;8.142;2023-08-06T12:57:43;22.50;99.90
18101;DHT22;9177;49.156;8.142;2023-08-06T13:00:11;22.50;99.90
18101;DHT22;9177;49.156;8.142;2023-08-06T13:02:37;22.50;99.90
18101;DHT22;9177;49.156;8.142;2023-08-06T13:05:04;22.50;99.90
18101;DHT22;9177;49.156;8.142;2023-08-06T13:07:32;22.50;99.90
18101;DHT22;9177;49.156;8.142;2023-08-06T13:10:01;22.50;99.90
18101;DHT22;9177;49.156;8.142;2023-08-06T13:12:29;22.50;99.90
18101;DHT22;9177;49.156;8.142;2023-08-06T13:14:56;22.50;99.90
18101;DHT22;9177;49.156;8.142;2023-08-06T13:17:24;22.50;99.90
18101;DHT22;9177;49.156;8.142;2023-08-06T13:19:52;22.50;99.90
18101;DHT22;9177;49.156;8.142;2023-08-06T13:22:19;22.50;99.90
18101;DHT22;9177;49.156;8.142;2023-08-06T13:24:46;22.50;99.90
18101;DHT22;9177;49.156;8.142;2023-08-06T13:27:13;22.50;99.90
18101;DHT22;9177;49.156;8.142;2023-08-06T13:29:52;22.50;99.90
18101;DHT22;9177;49.156;8.142;2023-08-06T13:32:19;22.50;99.90
18101;DHT22;9177;49.156;8.142;2023-08-06T13:34:46;22.50;99.90
18101;DHT22;9177;49.156;8.142;2023-08-06T13:37:13;22.50;99.90
18101;DHT22;9177;49.156;8.142;2023-08-06T13:39:40;22.50;99.90
18101;DHT22;9177;49.156;8.142;2023-08-06T13:42:07;22.50;99.90
18101;DHT22;9177;49.156;8.142;2023-08-06T13:44:34;22.50;99.90
18101;DHT22;9177;49.156;8.142;2023-08-06T13:47:03;22.60;99.90
18101;DHT22;9177;49.156;8.142;2023-08-06T13:49:30;22.60;99.90
18101;DHT22;9177;49.156;8.142;2023-08-06T13:51:57;22.60;99.90
18101;DHT22;9177;49.156;8.142;2023-08-06T13:54:27;22.60;99.90
18101;DHT22;9177;49.156;8.142;2023-08-06T13:56:55;22.60;99.90
18101;DHT22;9177;49.156;8.142;2023-08-06T13:59:22;22.60;99.90
18101;DHT22;9177;49.156;8.142;2023-08-06T14:01:50;22.60;99.90
18101;DHT22;9177;49.156;8.142;2023-08-06T14:04:20;22.60;99.90
18101;DHT22;9177;49.156;8.142;2023-08-06T14:06:47;22.60;99.90
18101;DHT22;9177;49.156;8.142;2023-08-06T14:09:14;22.60;99.90
18101;DHT22;9177;49.156;8.142;2023-08-06T14:11:44;22.60;99.90
18101;DHT22;9177;49.156;8.142;2023-08-06T14:14:11;22.60;99.90
18101;DHT22;9177;49.156;8.142;2023-08-06T14:16:38;22.60;99.90
18101;DHT22;9177;49.156;8.142;2023-08-06T14:19:05;22.60;99.90
18101;DHT22;9177;49.156;8.142;2023-08-06T14:21:33;22.60;99.90
18101;DHT22;9177;49.156;8.142;2023-08-06T14:24:09;22.60;99.90
18101;DHT22;9177;49.156;8.142;2023-08-06T14:26:36;22.70;99.90
18101;DHT22;9177;49.156;8.142;2023-08-06T14:29:03;22.80;99.90
18101;DHT22;9177;49.156;8.142;2023-08-06T14:31:30;22.80;99.90
18101;DHT22;9177;49.156;8.142;2023-08-06T14:33:57;22.90;99.90
18101;DHT22;9177;49.156;8.142;2023-08-06T14:36:24;22.90;99.90
18101;DHT22;9177;49.156;8.142;2023-08-06T14:38:55;23.20;99.90
18101;DHT22;9177;49.156;8.142;2023-08-06T14:41:22;23.30;99.90
18101;DHT22;9177;49.156;8.142;2023-08-06T14:43:50;23.30;99.90
18101;DHT22;9177;49.156;8.142;2023-08-06T14:46:17;23.30;99.90
18101;DHT22;9177;49.156;8.142;2023-08-06T14:48:44;23.20;99.90
18101;DHT22;9177;49.156;8.142;2023-08-06T14:51:11;23.10;99.90
18101;DHT22;9177;49.156;8.142;2023-08-06T14:53:39;23.10;99.90
18101;DHT22;9177;49.156;8.142;2023-08-06T14:56:07;23.10;99.90
18101;DHT22;9177;49.156;8.142;2023-08-06T14:58:34;23.10;99.90
18101;DHT22;9177;49.156;8.142;2023-08-06T15:01:01;23.10;99.90
18101;DHT22;9177;49.156;8.142;2023-08-06T15:03:28;23.10;99.90
18101;DHT22;9177;49.156;8.142;2023-08-06T15:05:57;23.00;99.90
18101;DHT22;9177;49.156;8.142;2023-08-06T15:08:23;22.90;99.90
18101;DHT22;9177;49.156;8.142;2023-08-06T15:10:54;22.90;99.90
18101;DHT22;9177;49.156;8.142;2023-08-06T15:13:22;22.90;99.90
18101;DHT22;9177;49.156;8.142;2023-08-06T15:15:52;22.90;99.90
18101;DHT22;9177;49.156;8.142;2023-08-06T15:18:19;22.80;99.90
18101;DHT22;9177;49.156;8.142;2023-08-06T15:20:46;22.80;99.90
18101;DHT22;9177;49.156;8.142;2023-08-06T15:23:13;22.80;99.90
18101;DHT22;9177;49.156;8.142;2023-08-06T15:25:40;22.80;99.90
18101;DHT22;9177;49.156;8.142;2023-08-06T15:28:07;22.80;99.90
18101;DHT22;9177;49.156;8.142;2023-08-06T15:30:37;22.80;99.90
18101;DHT22;9177;49.156;8.142;2023-08-06T15:33:13;22.80;99.90
18101;DHT22;9177;49.156;8.142;2023-08-06T15:35:40;22.80;99.90
18101;DHT22;9177;49.156;8.142;2023-08-06T15:38:07;22.80;99.90
18101;DHT22;9177;49.156;8.142;2023-08-06T15:40:34;22.80;99.90
18101;DHT22;9177;49.156;8.142;2023-08-06T15:43:01;22.80;99.90
18101;DHT22;9177;49.156;8.142;2023-08-06T15:45:31;22.90;99.90
18101;DHT22;9177;49.156;8.142;2023-08-06T15:47:59;22.90;99.90